Spencer, IN (47460)

9:43 AM EDT on March 27, 2017 (GMT -0400)
Owen Valley Middle School | | Change Station

Elev 571 ft 39.29 °N, 86.78 °W | Updated 21 seconds ago

Partly Cloudy
Partly Cloudy
52.3 °F
Feels Like 52.3 °F
N
0.0
Wind Variable Wind from SSE
Gusts 0.0 mph

Today
High -- | Low -- °F
--% Chance of Precip.
Yesterday
High -- | Low -- °F
Precip. -- in
Pressure 29.97 in
Visibility 7.0 miles
Clouds Clear
Dew Point 46 °F
Humidity 80%
Rainfall 0.00 in
Snow Depth Not available.
7:38 AM 8:06 PM
Waning Crescent, 0% visible
METAR KBMG 271253Z 14005KT 7SM CLR 10/08 A2997 RMK AO2 SLP147 T01000083
Pressure 29.97 in
Visibility 7.0 miles
Clouds Clear
Dew Point 46 °F
Humidity 80%
Rainfall 0.00 in
Snow Depth Not available.
7:38 AM 8:06 PM
Waning Crescent, 0% visible
METAR KBMG 271253Z 14005KT 7SM CLR 10/08 A2997 RMK AO2 SLP147 T01000083

Get Severe Weather Alerts

Thanks for signing up!

Be on the lookout for a verification email in your inbox.

You'll start receiving the daily forecast at 8 AM.

×

10-Day Weather Forecast

Almanac

Astronomy

Mar. 27, 2017 Rise Set
Actual Time
Civil Twilight
Nautical Twilight
Astronomical Twilight
Moon
Length of Visible Light
Length of Day
Tomorrow will be .
, % of the Moon is Illuminated

Today's Extremes

State Highs State Lows

Community

WunderPhotos

Upload Photos

1,962,540 photos uploaded!

WunderBlog® & News

Nearby

Air Quality

  Air Quality AQ Index Pollutant
Not available.

Snow Depth

Station Depth Elevation

Earthquake Activity

City Distance Mag. Time & Date
Minimum magnitude displayed is 2.5.

Earthquake Activity

City Distance Mag. Time & Date
Minimum magnitude displayed is 2.5.

Coastal Water Temperatures

Place Temperature

Stations

Nearby Weather Stations

Station Location Temp. Windchill Dew Point Humidity Wind Precip. Elev Updated Type
                   

Watches & Warnings

There are currently no watches in effect.